Time;durP1;ratioP1;P1;durP2;ratioP2;P2;SDS_P1;SDS_P2;PMS_P1;PMS_P2;Temp;Humidity;BMP_temperature;BMP_pressure;BME280_temperature;BME280_humidity;BME280_pressure;Samples;Min_cycle;Max_cycle;Signal;HPM_P1;HPM_P2
2022/04/19 00:01:18;;;;;;;16.23;9.07;;;;;;;19.33;38.14;101386.19;5063609;28;20041;-55
2022/04/19 00:03:43;;;;;;;16.95;9.40;;;;;;;19.21;38.47;101380.78;5072502;28;20044;-55
2022/04/19 00:06:08;;;;;;;17.83;8.77;;;;;;;19.24;38.12;101377.59;5073206;28;20056;-54
2022/04/19 00:08:35;;;;;;;15.30;9.67;;;;;;;19.08;38.49;101378.34;5062015;28;20037;-55
2022/04/19 00:11:02;;;;;;;15.07;9.13;;;;;;;19.01;38.79;101373.88;5072310;28;20037;-55
2022/04/19 00:13:28;;;;;;;;;;;;;;;19.06;39.25;101373.97;5069040;28;20041;-54
2022/04/19 00:15:55;;;;;;;24.13;9.75;;;;;;;18.98;39.23;101370.78;5071345;28;19924;-54
2022/04/19 00:18:22;;;;;;;18.05;9.60;;;;;;;18.92;39.02;101378.81;5069014;28;20113;-55
2022/04/19 00:20:49;;;;;;;;;;;;;;;18.92;39.19;101375.31;5070725;28;20056;-52
2022/04/19 00:23:15;;;;;;;19.42;10.07;;;;;;;18.67;39.51;101367.44;5073068;28;19913;-54
2022/04/19 00:25:46;;;;;;;21.17;9.25;;;;;;;18.65;39.08;101364.94;5073091;28;20101;-55
2022/04/19 00:28:14;;;;;;;18.23;10.40;;;;;;;18.70;38.73;101373.22;5071238;28;20033;-55
2022/04/19 00:30:41;;;;;;;14.02;8.20;;;;;;;19.03;38.53;101370.91;5068556;28;20695;-54
2022/04/19 00:33:07;;;;;;;17.98;9.45;;;;;;;19.06;38.32;101378.59;5066036;28;20039;-54
2022/04/19 00:35:34;;;;;;;18.25;9.98;;;;;;;18.99;38.55;101372.47;5061680;28;20101;-55
2022/04/19 00:38:00;;;;;;;14.43;8.55;;;;;;;18.91;38.57;101373.63;5070620;28;20032;-52
2022/04/19 00:40:26;;;;;;;16.20;8.80;;;;;;;18.85;38.60;101369.16;5070445;28;20075;-54
2022/04/19 00:42:55;;;;;;;16.88;8.75;;;;;;;18.88;37.97;101363.25;5076596;28;20040;-54
2022/04/19 00:45:25;;;;;;;15.05;8.82;;;;;;;18.93;37.90;101363.41;5067928;28;20038;-54
2022/04/19 00:47:52;;;;;;;17.67;8.90;;;;;;;18.87;37.77;101372.47;5068556;28;20041;-53
2022/04/19 00:50:19;;;;;;;14.90;8.73;;;;;;;18.89;37.76;101360.31;5062917;28;20045;-53
2022/04/19 00:52:45;;;;;;;18.85;9.80;;;;;;;18.63;38.00;101359.78;5069483;28;20044;-53
2022/04/19 00:55:12;;;;;;;18.30;9.60;;;;;;;18.66;37.81;101361.16;5072371;28;20101;-54
2022/04/19 00:57:43;;;;;;;62.50;27.75;;;;;;;18.69;37.92;101359.88;5060439;28;20080;-53
2022/04/19 01:00:12;;;;;;;247.50;103.53;;;;;;;18.75;38.01;101361.63;5056771;28;20036;-54
2022/04/19 01:02:44;;;;;;;27.60;13.38;;;;;;;18.74;38.08;101362.69;5075373;28;20036;-57
2022/04/19 01:05:12;;;;;;;14.73;8.77;;;;;;;18.69;37.65;101360.72;5069933;28;20054;-53
2022/04/19 01:07:39;;;;;;;15.45;8.57;;;;;;;18.67;37.86;101356.59;5075710;28;20037;-53
2022/04/19 01:10:09;;;;;;;18.85;8.65;;;;;;;18.66;37.78;101365.78;5075963;28;20017;-54
2022/04/19 01:15:21;;;;;;;15.25;8.45;;;;;;;18.59;38.00;101361.31;5068828;28;19913;-55
2022/04/19 01:18:08;;;;;;;14.98;8.60;;;;;;;18.61;37.95;101355.66;5072548;28;20128;-55
2022/04/19 01:20:37;;;;;;;14.77;8.05;;;;;;;18.39;38.30;101345.41;5075147;28;20047;-55
2022/04/19 01:23:05;;;;;;;14.65;8.73;;;;;;;18.28;38.73;101349.75;5062290;28;20025;-54
2022/04/19 01:25:34;;;;;;;15.10;8.88;;;;;;;18.15;38.93;101344.59;5072343;28;20036;-55
2022/04/19 01:28:00;;;;;;;;;;;;;;;18.14;39.14;101351.06;5063264;28;20034;-55
2022/04/19 01:30:26;;;;;;;14.73;8.77;;;;;;;18.11;39.30;101344.22;5065038;28;19928;-55
2022/04/19 01:32:53;;;;;;;17.00;9.00;;;;;;;18.13;39.40;101352.94;5074708;28;20033;-54
2022/04/19 01:35:21;;;;;;;15.35;9.35;;;;;;;18.16;39.55;101351.66;5068515;28;20060;-55
2022/04/19 01:37:52;;;;;;;16.00;8.43;;;;;;;18.08;39.80;101349.28;5072390;28;20042;-52
2022/04/19 01:40:25;;;;;;;14.70;8.93;;;;;;;18.04;40.01;101348.94;5065660;28;20048;-50
2022/04/19 01:42:58;;;;;;;16.95;9.10;;;;;;;18.02;40.01;101343.75;5062324;28;20040;-55
2022/04/19 01:45:32;;;;;;;14.10;8.57;;;;;;;18.04;40.23;101349.75;5063538;28;20037;-55
2022/04/19 01:48:01;;;;;;;16.33;9.52;;;;;;;17.88;40.52;101351.22;5067321;28;20041;-54
2022/04/19 01:50:29;;;;;;;13.88;8.50;;;;;;;17.70;40.99;101354.00;5069094;28;20090;-54
2022/04/19 01:52:59;;;;;;;15.43;8.57;;;;;;;17.67;41.03;101347.19;5073075;28;20025;-52
2022/04/19 01:55:28;;;;;;;14.57;8.93;;;;;;;17.66;41.28;101345.53;5074876;28;20044;-51
2022/04/19 01:57:59;;;;;;;16.67;9.10;;;;;;;17.65;41.38;101348.44;5071439;28;20037;-56
2022/04/19 02:00:32;;;;;;;14.98;8.48;;;;;;;17.52;41.49;101347.56;5063054;28;20033;-55
2022/04/19 02:02:58;;;;;;;15.00;9.07;;;;;;;17.62;41.26;101341.63;5074476;28;20101;-55
2022/04/19 02:05:25;;;;;;;15.07;8.70;;;;;;;17.62;41.51;101341.63;5074367;28;20114;-55
2022/04/19 02:07:52;;;;;;;18.38;9.68;;;;;;;17.57;41.53;101350.44;5071303;28;20098;-52
2022/04/19 02:10:20;;;;;;;16.92;8.88;;;;;;;17.52;41.60;101347.56;5068188;28;20038;-52
2022/04/19 02:12:50;;;;;;;13.25;8.45;;;;;;;17.53;41.47;101338.44;5064865;28;20045;-52
2022/04/19 02:15:35;;;;;;;15.20;8.80;;;;;;;17.46;41.65;101343.09;5066782;28;20113;-55
2022/04/19 02:18:11;;;;;;;15.57;8.93;;;;;;;17.42;41.74;101339.19;5071302;28;20025;-53
2022/04/19 02:20:37;;;;;;;12.68;7.95;;;;;;;17.42;41.77;101337.34;5074033;28;20051;-55
2022/04/19 02:23:03;;;;;;;16.65;9.43;;;;;;;17.30;41.72;101336.44;5074012;28;20104;-54
2022/04/19 02:25:30;;;;;;;13.85;8.70;;;;;;;17.34;41.89;101330.38;5072227;28;20046;-55
2022/04/19 02:27:58;;;;;;;13.80;8.05;;;;;;;17.27;41.86;101329.59;5063965;28;20036;-53
2022/04/19 02:30:30;;;;;;;16.75;8.80;;;;;;;17.19;41.93;101329.94;5070463;28;20032;-54
2022/04/19 02:33:03;;;;;;;16.05;9.65;;;;;;;17.29;41.73;101332.91;5073996;28;20025;-53
2022/04/19 02:35:31;;;;;;;17.20;8.98;;;;;;;17.41;41.49;101332.16;5069553;28;20483;-54
2022/04/19 02:37:58;;;;;;;18.02;9.50;;;;;;;17.39;41.47;101329.66;5070790;28;20033;-53
2022/04/19 02:40:29;;;;;;;14.43;8.05;;;;;;;17.26;42.08;101330.66;5065480;28;20078;-53
2022/04/19 02:42:58;;;;;;;13.55;8.38;;;;;;;17.23;41.85;101333.81;5071909;28;20033;-55
2022/04/19 02:45:25;;;;;;;19.08;9.20;;;;;;;17.22;41.66;101326.78;5069093;28;20803;-52
2022/04/19 02:48:03;;;;;;;15.27;8.98;;;;;;;17.22;41.74;101326.78;5070970;28;20051;-55
2022/04/19 02:50:33;;;;;;;16.60;8.25;;;;;;;17.19;41.85;101321.81;5073738;28;20041;-56
2022/04/19 02:53:03;;;;;;;15.90;8.77;;;;;;;17.05;42.10;101319.28;5069110;28;20037;-52
2022/04/19 02:55:28;;;;;;;16.83;8.73;;;;;;;17.10;42.04;101323.22;5073709;28;20104;-54
2022/04/19 02:57:55;;;;;;;16.20;9.60;;;;;;;16.97;41.77;101324.97;5070056;28;20045;-52
2022/04/19 03:00:21;;;;;;;15.30;8.18;;;;;;;17.03;41.87;101320.59;5068646;28;20057;-53
2022/04/19 03:02:47;;;;;;;15.18;8.70;;;;;;;17.00;41.79;101327.25;5067154;28;20049;-54
2022/04/19 03:05:13;;;;;;;15.67;8.40;;;;;;;16.98;41.61;101325.81;5073032;28;20035;-55
2022/04/19 03:07:39;;;;;;;17.15;8.30;;;;;;;17.01;41.40;101325.38;5067751;28;20296;-52
2022/04/19 03:10:06;;;;;;;15.83;9.00;;;;;;;16.96;41.27;101317.94;5068545;28;20029;-53
2022/04/19 03:12:32;;;;;;;18.05;8.32;;;;;;;16.90;41.35;101324.25;5064766;28;20041;-55
2022/04/19 03:15:08;;;;;;;14.02;8.05;;;;;;;16.82;41.40;101319.13;5066680;28;20052;-54
2022/04/19 03:17:34;;;;;;;16.20;9.10;;;;;;;16.84;41.21;101319.72;5067700;28;20044;-56
2022/04/19 03:20:00;;;;;;;16.60;8.25;;;;;;;16.77;41.37;101317.94;5072989;28;20289;-54
2022/04/19 03:27:41;;;;;;;14.02;8.20;;;;;;;16.80;41.15;101319.38;5055840;28;20049;-51
2022/04/19 03:27:56;;;;;;;15.75;8.82;;;;;;;16.77;40.87;101320.63;5069825;28;20034;-57
2022/04/19 03:30:22;;;;;;;15.63;8.43;;;;;;;16.78;40.59;101316.88;5059157;28;20072;-55
2022/04/19 03:32:52;;;;;;;18.83;8.27;;;;;;;16.78;40.54;101318.78;5072520;28;20052;-52
2022/04/19 03:35:19;;;;;;;17.85;8.05;;;;;;;16.75;40.44;101311.94;5069578;28;20041;-55
2022/04/19 03:37:44;;;;;;;15.90;8.77;;;;;;;16.66;40.48;101318.69;5069455;28;20045;-53
2022/04/19 03:40:10;;;;;;;13.57;7.93;;;;;;;16.62;40.62;101317.50;5070201;28;20055;-53
2022/04/19 03:42:36;;;;;;;15.80;7.65;;;;;;;16.56;40.71;101313.81;5068158;28;20037;-54
2022/04/19 03:45:02;;;;;;;18.35;8.70;;;;;;;16.48;40.47;101314.09;5065929;28;20037;-54
2022/04/19 03:47:28;;;;;;;;;;;;;;;16.49;40.38;101313.03;5072928;28;20045;-51
2022/04/19 03:49:54;;;;;;;16.63;8.90;;;;;;;16.55;40.36;101322.13;5072138;28;19927;-51
2022/04/19 03:52:19;;;;;;;18.83;9.43;;;;;;;16.46;40.25;101319.72;5071908;28;20104;-52
2022/04/19 03:54:46;;;;;;;18.17;9.02;;;;;;;16.47;40.34;101315.97;5065718;28;20271;-51
2022/04/19 03:57:12;;;;;;;18.60;9.07;;;;;;;16.53;40.30;101319.66;5066891;28;20087;-54
2022/04/19 03:59:39;;;;;;;19.52;9.38;;;;;;;16.55;40.18;101316.72;5072163;28;20036;-54
2022/04/19 04:02:05;;;;;;;16.65;9.27;;;;;;;16.48;40.33;101325.72;5063053;28;20055;-51
2022/04/19 04:04:32;;;;;;;17.20;9.85;;;;;;;16.43;40.34;101325.56;5065828;28;20041;-51
2022/04/19 04:06:58;;;;;;;16.08;8.30;;;;;;;16.45;40.31;101318.06;5071778;28;20033;-55
2022/04/19 04:09:25;;;;;;;15.15;8.48;;;;;;;16.39;40.56;101318.97;5064313;28;20094;-52
2022/04/19 04:11:50;;;;;;;15.93;8.93;;;;;;;16.31;40.73;101313.84;5071819;28;20040;-56
2022/04/19 04:14:18;;;;;;;16.60;9.85;;;;;;;16.28;40.75;101312.44;5065121;28;20029;-55
2022/04/19 04:16:43;;;;;;;20.10;11.05;;;;;;;16.34;40.67;101316.09;5061445;28;20051;-57
2022/04/19 04:19:09;;;;;;;15.10;9.17;;;;;;;16.31;40.78;101313.84;5065283;28;20036;-56
2022/04/19 04:21:34;;;;;;;15.65;8.98;;;;;;;16.09;40.98;101319.63;5060503;28;20045;-56
2022/04/19 04:24:01;;;;;;;16.30;8.65;;;;;;;16.09;41.30;101314.25;5064277;28;20033;-56
2022/04/19 04:26:33;;;;;;;16.60;9.25;;;;;;;16.07;41.36;101319.03;5065499;28;20025;-57
2022/04/19 04:28:59;;;;;;;16.83;9.40;;;;;;;16.07;41.21;101326.31;5071281;28;20048;-55
2022/04/19 04:31:24;;;;;;;14.83;8.37;;;;;;;16.14;41.36;101316.28;5075500;28;20024;-55
2022/04/19 04:33:50;;;;;;;20.38;9.60;;;;;;;15.99;41.74;101327.41;5071889;28;20028;-56
2022/04/19 04:36:16;;;;;;;21.83;9.37;;;;;;;15.94;41.79;101322.66;5065254;28;20040;-55
2022/04/19 04:38:42;;;;;;;;;;;;;;;15.90;41.99;101329.56;5066005;28;20029;-54
2022/04/19 04:41:18;;;;;;;15.13;8.70;;;;;;;15.96;41.98;101327.84;5080540;28;19992;-54
2022/04/19 04:43:43;;;;;;;16.77;8.83;;;;;;;16.01;42.01;101326.13;5068219;28;20045;-54
2022/04/19 04:51:38;;;;;;;17.00;9.15;;;;;;;16.11;41.70;101322.94;5069444;28;20044;-55
2022/04/19 04:54:04;;;;;;;19.57;9.17;;;;;;;16.11;41.87;101330.22;5066781;28;20100;-55
2022/04/19 04:56:30;;;;;;;14.27;8.68;;;;;;;16.09;41.88;101338.53;5065395;28;20055;-56
2022/04/19 04:58:56;;;;;;;19.80;9.10;;;;;;;16.04;41.85;101333.81;5066220;28;20041;-55
2022/04/19 05:01:23;;;;;;;17.42;8.23;;;;;;;16.01;41.94;101344.19;5065493;28;20100;-55
2022/04/19 05:03:48;;;;;;;19.00;8.43;;;;;;;15.99;41.78;101346.28;5077026;28;20045;-56
2022/04/19 05:06:14;;;;;;;16.45;9.02;;;;;;;15.96;42.09;101341.34;5059899;28;20073;-51
2022/04/19 05:08:40;;;;;;;17.08;9.60;;;;;;;15.97;41.84;101340.28;5072384;28;20044;-54
2022/04/19 05:11:06;;;;;;;21.77;9.60;;;;;;;15.96;41.90;101341.34;5070989;28;20033;-53
2022/04/19 05:13:33;;;;;;;17.17;9.13;;;;;;;15.98;41.68;101341.94;5065505;28;20036;-53
2022/04/19 05:16:00;;;;;;;17.48;9.40;;;;;;;16.02;41.56;101337.75;5059954;28;20042;-53
2022/04/19 05:18:30;;;;;;;15.85;8.45;;;;;;;15.98;41.52;101341.94;5059019;28;20037;-52
2022/04/19 05:20:56;;;;;;;17.77;9.43;;;;;;;16.11;41.38;101339.13;5065566;28;20040;-53
2022/04/19 05:23:22;;;;;;;17.25;8.70;;;;;;;16.18;41.06;101336.38;5071740;28;20047;-54
2022/04/19 05:25:48;;;;;;;20.00;9.33;;;;;;;16.17;41.15;101342.81;5067871;28;20040;-54
2022/04/19 05:28:14;;;;;;;19.98;8.95;;;;;;;16.22;41.10;101337.59;5073524;28;20037;-52
2022/04/19 05:30:40;;;;;;;24.48;10.35;;;;;;;16.28;41.19;101338.56;5066664;28;20040;-54
2022/04/19 05:33:06;;;;;;;19.27;9.48;;;;;;;16.31;41.28;101341.66;5068233;28;20036;-55
2022/04/19 05:35:32;;;;;;;33.58;10.80;;;;;;;16.30;41.61;101344.56;5075115;28;20104;-55
2022/04/19 05:37:59;;;;;;;18.58;9.98;;;;;;;16.26;41.86;101341.50;5075791;28;20037;-50
2022/04/19 05:40:28;;;;;;;22.80;9.40;;;;;;;16.28;41.99;101339.41;5061992;28;20032;-53
2022/04/19 05:42:54;;;;;;;19.60;9.85;;;;;;;16.35;42.37;101339.34;5068189;28;20048;-55
2022/04/19 05:45:20;;;;;;;19.00;9.75;;;;;;;16.43;42.60;101341.78;5069321;28;20092;-53
2022/04/19 05:47:46;;;;;;;19.13;9.52;;;;;;;16.46;42.80;101341.31;5073165;28;20049;-51
2022/04/19 05:50:12;;;;;;;17.38;9.55;;;;;;;16.49;42.82;101351.66;5067895;28;20097;-53
2022/04/19 05:52:38;;;;;;;24.58;9.57;;;;;;;16.58;42.84;101341.41;5075709;28;20045;-54
2022/04/19 05:55:08;;;;;;;19.98;9.20;;;;;;;16.65;42.81;101344.03;5058214;28;20037;-52
2022/04/19 05:57:34;;;;;;;20.65;10.40;;;;;;;16.76;42.99;101339.78;5074474;28;20025;-54
2022/04/19 06:00:00;;;;;;;19.85;10.00;;;;;;;16.85;43.25;101343.00;5068461;28;20036;-54
2022/04/19 06:05:13;;;;;;;21.30;11.02;;;;;;;16.97;43.61;101343.88;5059587;28;20037;-50
2022/04/19 06:07:44;;;;;;;18.63;9.38;;;;;;;17.00;43.57;101351.56;5068980;28;20059;-53
2022/04/19 06:10:12;;;;;;;20.25;9.68;;;;;;;17.07;42.95;101351.50;5082955;28;20093;-53
2022/04/19 06:12:39;;;;;;;20.95;9.45;;;;;;;17.24;42.86;101357.09;5068598;28;20033;-56
2022/04/19 06:15:07;;;;;;;21.85;10.38;;;;;;;17.19;42.41;101359.66;5067030;28;20124;-53
2022/04/19 06:17:35;;;;;;;18.15;9.82;;;;;;;17.31;41.76;101357.84;5068420;28;20039;-54
2022/04/19 06:20:08;;;;;;;18.92;10.23;;;;;;;17.65;41.24;101361.97;5068326;28;20036;-56
2022/04/19 06:22:34;;;;;;;24.77;10.25;;;;;;;17.63;41.57;101363.03;5073538;28;20037;-52
2022/04/19 06:25:05;;;;;;;22.58;10.38;;;;;;;17.69;41.54;101369.41;5072950;28;20032;-51
2022/04/19 06:27:31;;;;;;;19.20;10.60;;;;;;;17.74;41.58;101366.00;5061279;28;20100;-51
2022/04/19 06:29:58;;;;;;;20.70;9.57;;;;;;;17.85;41.38;101367.91;5056198;28;20053;-53
2022/04/19 06:32:24;;;;;;;22.75;10.45;;;;;;;17.96;41.27;101365.47;5065379;28;20037;-54
2022/04/19 06:34:53;;;;;;;18.85;9.70;;;;;;;18.02;41.11;101368.09;5063152;28;20033;-55
2022/04/19 06:37:22;;;;;;;22.27;10.35;;;;;;;18.15;40.48;101372.47;5058279;28;20029;-55
2022/04/19 06:39:59;;;;;;;17.05;9.82;;;;;;;18.19;40.25;101365.53;5068947;28;20063;-55
2022/04/19 06:42:24;;;;;;;24.85;10.45;;;;;;;18.28;40.43;101366.00;5067438;28;20033;-54
2022/04/19 06:45:11;;;;;;;21.85;9.95;;;;;;;18.43;39.78;101378.28;5071592;28;20044;-52
2022/04/19 06:47:39;;;;;;;24.23;11.48;;;;;;;18.48;40.00;101376.50;5064618;28;20041;-55
2022/04/19 06:50:06;;;;;;;19.75;11.13;;;;;;;18.67;39.13;101376.38;5066805;28;20470;-54
2022/04/19 06:52:32;;;;;;;17.47;9.50;;;;;;;18.87;39.35;101378.72;5062736;28;20072;-54
2022/04/19 06:54:59;;;;;;;22.37;10.83;;;;;;;18.89;40.10;101378.47;5067698;28;20032;-55
2022/04/19 06:57:24;;;;;;;20.57;11.10;;;;;;;18.98;39.69;101379.78;5066878;28;20262;-54
2022/04/19 06:59:49;;;;;;;23.17;10.23;;;;;;;19.09;39.69;101382.69;5067959;28;20292;-53
2022/04/19 07:02:16;;;;;;;19.77;10.93;;;;;;;19.17;40.17;101377.72;5069474;28;20037;-53
2022/04/19 07:04:47;;;;;;;25.20;10.60;;;;;;;19.33;40.25;101381.56;5072319;28;20041;-49
2022/04/19 07:07:13;;;;;;;21.50;11.68;;;;;;;19.35;40.29;101381.34;5070916;28;20291;-51
2022/04/19 07:09:42;;;;;;;24.17;11.57;;;;;;;19.35;39.37;101379.44;5069480;28;20112;-54
2022/04/19 07:12:08;;;;;;;22.20;9.77;;;;;;;19.48;39.50;101372.09;5061767;28;20411;-51
2022/04/19 07:14:40;;;;;;;19.87;10.07;;;;;;;19.66;39.16;101383.81;5067781;28;20033;-51
2022/04/19 07:17:31;;;;;;;17.73;9.27;;;;;;;19.80;38.73;101390.56;5071156;28;20277;-54
2022/04/19 07:28:14;;;;;;;21.30;9.57;;;;;;;20.18;38.76;101396.38;5063181;28;20285;-54
2022/04/19 07:30:43;;;;;;;35.07;10.93;;;;;;;20.20;39.12;101395.06;5067280;28;20285;-54
2022/04/19 07:33:09;;;;;;;24.83;11.07;;;;;;;20.24;38.85;101394.56;5067757;28;20282;-53
2022/04/19 07:35:37;;;;;;;19.33;9.07;;;;;;;20.49;38.42;101397.69;5072702;28;20308;-55
2022/04/19 07:38:02;;;;;;;20.75;9.85;;;;;;;20.62;38.62;101406.56;5066226;28;20278;-51
2022/04/19 07:40:45;;;;;;;18.43;9.87;;;;;;;20.82;38.20;101405.25;5070566;28;20029;-55
2022/04/19 07:43:11;;;;;;;18.70;9.33;;;;;;;20.92;37.71;101405.38;5070597;28;20278;-51
2022/04/19 07:45:37;;;;;;;20.33;9.37;;;;;;;20.91;37.56;101392.84;5068051;28;20752;-53
2022/04/19 07:48:05;;;;;;;22.00;9.05;;;;;;;20.91;36.99;101410.00;5059445;28;20041;-51
2022/04/19 07:50:31;;;;;;;21.27;9.53;;;;;;;20.98;37.12;101398.94;5072169;28;20041;-50
2022/04/19 07:52:57;;;;;;;17.60;8.57;;;;;;;20.91;36.50;101399.13;5071908;28;20332;-56
2022/04/19 07:55:23;;;;;;;15.60;7.93;;;;;;;21.03;35.92;101401.72;5058107;28;20033;-53
2022/04/19 07:57:49;;;;;;;;;;;;;;;21.18;35.58;101400.25;5060287;28;20029;-56
2022/04/19 08:00:16;;;;;;;17.93;8.53;;;;;;;21.25;35.17;101409.06;5066303;28;19944;-57
2022/04/19 08:02:46;;;;;;;16.17;7.77;;;;;;;21.34;35.00;101401.28;5071665;28;20470;-54
2022/04/19 08:05:15;;;;;;;14.50;8.23;;;;;;;21.30;34.63;101403.69;5071024;28;20354;-53
2022/04/19 08:07:40;;;;;;;14.03;7.10;;;;;;;21.42;34.93;101397.28;5072013;28;20278;-56
2022/04/19 08:10:06;;;;;;;14.73;7.65;;;;;;;21.39;34.64;101406.78;5062393;28;20093;-53
2022/04/19 08:12:32;;;;;;;14.05;6.20;;;;;;;21.32;34.31;101401.53;5065564;28;20124;-54
2022/04/19 08:14:58;;;;;;;15.40;6.85;;;;;;;21.63;33.45;101401.84;5072933;28;20172;-53
2022/04/19 08:17:24;;;;;;;15.93;6.93;;;;;;;21.51;33.31;101403.09;5065729;28;20067;-53
2022/04/19 08:19:50;;;;;;;17.77;6.75;;;;;;;21.60;33.20;101396.13;5059580;28;20279;-55
2022/04/19 08:22:16;;;;;;;13.07;6.40;;;;;;;21.75;33.28;101404.44;5065651;28;20065;-54
2022/04/19 08:24:54;;;;;;;14.97;6.97;;;;;;;21.92;33.15;101401.63;5065215;28;20091;-55
2022/04/19 08:27:19;;;;;;;12.17;5.50;;;;;;;21.85;32.45;101411.91;5068354;28;20277;-52
2022/04/19 08:29:46;;;;;;;13.15;6.00;;;;;;;22.06;32.62;101401.19;5065515;28;20605;-55
2022/04/19 08:32:12;;;;;;;13.50;7.10;;;;;;;22.14;32.52;101408.88;5072077;28;20044;-53
2022/04/19 08:34:39;;;;;;;14.60;5.60;;;;;;;22.08;32.21;101409.91;5068975;28;20329;-54
2022/04/19 08:37:05;;;;;;;11.82;6.03;;;;;;;22.02;32.38;101405.53;5061302;28;20032;-53
2022/04/19 08:39:31;;;;;;;15.63;6.37;;;;;;;22.16;32.56;101405.91;5064869;28;20040;-56
2022/04/19 08:41:57;;;;;;;12.05;5.63;;;;;;;22.25;32.06;101403.53;5064758;28;20262;-54
2022/04/19 08:44:23;;;;;;;13.90;6.45;;;;;;;22.25;31.85;101403.53;5067795;28;20048;-57
2022/04/19 08:46:49;;;;;;;15.30;6.90;;;;;;;22.32;31.51;101406.84;5062875;28;20033;-55
2022/04/19 08:49:17;;;;;;;13.33;6.57;;;;;;;22.38;31.89;101403.09;5068986;28;20036;-54
2022/04/19 08:51:44;;;;;;;21.13;7.00;;;;;;;22.52;31.55;101406.22;5062385;28;20295;-55
2022/04/19 08:59:41;;;;;;;20.47;6.90;;;;;;;23.24;31.29;101405.72;5066748;28;20282;-56
2022/04/19 09:02:07;;;;;;;;;;;;;;;23.22;30.50;101405.19;5070878;28;20267;-56
2022/04/19 09:04:33;;;;;;;11.47;5.20;;;;;;;23.18;29.82;101406.81;5075023;28;19950;-52
2022/04/19 09:07:00;;;;;;;14.80;5.50;;;;;;;23.49;29.97;101409.66;5072772;28;20293;-56
2022/04/19 09:09:32;;;;;;;10.60;5.43;;;;;;;23.73;29.55;101411.88;5075844;28;20506;-57
2022/04/19 09:12:08;;;;;;;12.57;5.70;;;;;;;23.96;29.11;101415.19;5068062;28;20266;-55
2022/04/19 09:14:34;;;;;;;11.35;5.70;;;;;;;24.33;28.92;101411.41;5074672;28;20041;-56
2022/04/19 09:17:05;;;;;;;13.95;5.85;;;;;;;24.78;27.69;101411.59;5076094;28;20056;-58
2022/04/19 09:19:31;;;;;;;12.70;5.70;;;;;;;25.24;27.54;101410.63;5073369;28;20037;-56
2022/04/19 09:21:58;;;;;;;12.57;6.13;;;;;;;25.53;27.35;101407.19;5069641;28;20065;-57
2022/04/19 09:24:25;;;;;;;9.60;5.50;;;;;;;26.04;27.01;101408.75;5076270;28;20044;-56
2022/04/19 09:26:51;;;;;;;9.47;5.47;;;;;;;26.43;25.74;101412.53;5076378;28;20045;-56
2022/04/19 09:29:20;;;;;;;15.70;5.68;;;;;;;26.71;25.65;101406.50;5075431;28;20029;-56
2022/04/19 09:31:47;;;;;;;12.37;5.33;;;;;;;27.58;24.66;101410.09;5073100;28;20048;-56
2022/04/19 09:34:33;;;;;;;19.23;5.57;;;;;;;28.05;24.10;101404.69;5065604;28;20052;-57
2022/04/19 09:37:13;;;;;;;10.07;5.13;;;;;;;28.54;23.24;101403.56;5075646;28;20466;-57
2022/04/19 09:39:44;;;;;;;16.43;4.77;;;;;;;29.21;22.48;101399.47;5075312;28;20033;-56
2022/04/19 09:42:17;;;;;;;23.13;5.70;;;;;;;29.89;22.07;101399.56;5065056;28;20029;-53
2022/04/19 09:44:44;;;;;;;18.27;4.87;;;;;;;30.28;21.86;101401.94;5069613;28;20040;-55
2022/04/19 09:47:11;;;;;;;8.70;4.40;;;;;;;30.87;21.69;101403.63;5074180;28;20048;-56
2022/04/19 09:49:48;;;;;;;10.93;3.87;;;;;;;30.92;20.55;101406.28;5062493;28;20043;-58
2022/04/19 09:52:23;;;;;;;6.10;3.40;;;;;;;31.59;20.56;101401.47;5071656;28;20025;-55
2022/04/19 09:55:01;;;;;;;7.13;2.93;;;;;;;31.64;20.67;101405.22;5075350;28;20100;-59
2022/04/19 09:57:30;;;;;;;9.30;4.13;;;;;;;31.81;19.98;101402.44;5068685;28;20047;-58
2022/04/19 09:59:56;;;;;;;5.87;3.00;;;;;;;31.90;20.41;101400.50;5070887;28;20029;-57
2022/04/19 10:10:36;;;;;;;11.05;3.67;;;;;;;31.83;20.21;101405.72;5074325;28;20068;-58
2022/04/19 10:13:03;;;;;;;11.45;3.83;;;;;;;32.37;19.76;101403.63;5068142;28;20060;-58
2022/04/19 10:15:33;;;;;;;8.13;3.70;;;;;;;32.75;19.69;101406.38;5067838;28;20029;-57
2022/04/19 10:17:59;;;;;;;5.78;2.95;;;;;;;33.06;19.32;101403.63;5069304;28;20061;-58
2022/04/19 10:20:32;;;;;;;7.05;3.33;;;;;;;33.77;18.41;101401.09;5061196;28;20033;-58
2022/04/19 10:23:08;;;;;;;6.95;3.80;;;;;;;33.89;18.07;101398.38;5064418;28;20102;-56
2022/04/19 10:25:44;;;;;;;9.13;3.90;;;;;;;34.39;18.29;101393.75;5070786;28;20383;-56
2022/04/19 10:28:15;;;;;;;8.88;3.20;;;;;;;34.49;17.68;101405.59;5066673;28;20037;-56
2022/04/19 10:30:51;;;;;;;9.57;3.80;;;;;;;34.63;17.86;101394.13;5068101;28;20036;-56
2022/04/19 10:33:41;;;;;;;10.40;4.10;;;;;;;35.50;16.98;101400.31;5069623;28;20048;-57
2022/04/19 10:36:37;;;;;;;8.60;4.28;;;;;;;35.74;17.07;101402.22;5072213;28;20043;-54
2022/04/19 10:39:12;;;;;;;6.38;3.55;;;;;;;35.74;17.07;101401.38;5067795;28;20060;-57
2022/04/19 10:41:57;;;;;;;7.93;4.50;;;;;;;36.65;16.24;101404.50;5066293;28;20134;-56
2022/04/19 10:44:24;;;;;;;8.63;5.27;;;;;;;35.96;16.39;101401.97;5066865;28;20033;-58
2022/04/19 10:47:18;;;;;;;10.50;4.53;;;;;;;36.08;16.32;101398.31;5064847;28;20033;-55
2022/04/19 10:49:46;;;;;;;7.90;4.32;;;;;;;36.28;16.24;101396.47;5069104;28;20044;-57
2022/04/19 10:52:45;;;;;;;8.63;4.45;;;;;;;36.93;15.80;101402.75;5073756;28;20047;-55
2022/04/19 10:55:17;;;;;;;8.43;3.85;;;;;;;37.13;15.58;101398.84;5048437;28;20040;-59
2022/04/19 11:00:54;;;;;;;8.07;4.28;;;;;;;37.77;15.38;101397.72;5069342;28;20033;-57
2022/04/19 11:03:26;;;;;;;8.82;4.60;;;;;;;37.93;15.27;101391.22;5065814;28;20037;-56
2022/04/19 11:05:56;;;;;;;7.35;4.25;;;;;;;38.33;14.92;101384.34;5073770;28;20037;-55
2022/04/19 11:08:25;;;;;;;11.85;5.32;;;;;;;38.69;15.12;101376.53;5073968;28;20112;-57
2022/04/19 11:10:56;;;;;;;10.77;4.32;;;;;;;38.60;14.85;101378.81;5060788;28;20049;-58
2022/04/19 11:13:22;;;;;;;8.88;5.05;;;;;;;38.73;14.33;101377.38;5068738;28;20047;-59
2022/04/19 11:16:12;;;;;;;7.63;4.03;;;;;;;39.29;14.53;101374.94;5066961;28;20060;-58
2022/04/19 11:18:37;;;;;;;7.80;4.28;;;;;;;39.60;14.14;101376.88;5057185;28;20037;-59
2022/04/19 11:21:12;;;;;;;8.10;4.32;;;;;;;39.90;13.18;101373.16;5072849;28;20032;-58
2022/04/19 11:23:43;;;;;;;11.55;4.65;;;;;;;39.93;13.71;101372.44;5073489;28;20096;-60
2022/04/19 11:26:28;;;;;;;8.02;4.43;;;;;;;40.09;13.45;101375.75;5069880;28;20063;-58
2022/04/19 11:29:16;;;;;;;7.68;4.20;;;;;;;39.95;13.84;101376.44;5062712;28;20021;-57
2022/04/19 11:31:44;;;;;;;9.57;4.72;;;;;;;40.03;13.15;101366.09;5068606;28;20063;-56
2022/04/19 11:34:19;;;;;;;6.88;3.83;;;;;;;40.08;13.70;101364.94;5069832;28;20037;-55
2022/04/19 11:36:44;;;;;;;8.90;4.60;;;;;;;40.38;13.50;101362.00;5066405;28;20037;-59
2022/04/19 11:47:59;;;;;;;11.35;5.50;;;;;;;41.10;12.88;101363.56;5074378;28;20072;-59
2022/04/19 11:50:32;;;;;;;8.95;5.57;;;;;;;41.11;13.22;101359.56;5060594;28;20060;-57
2022/04/19 11:52:58;;;;;;;8.32;4.95;;;;;;;41.67;12.48;101362.13;5062058;28;20045;-59
2022/04/19 11:55:27;;;;;;;11.27;4.75;;;;;;;41.03;12.66;101360.72;5066550;28;20029;-58
2022/04/19 11:58:06;;;;;;;10.25;5.93;;;;;;;41.72;12.61;101364.53;5072978;28;20039;-58
2022/04/19 12:00:32;;;;;;;11.70;6.20;;;;;;;42.25;12.32;101367.78;5060559;28;20108;-57
2022/04/19 12:02:58;;;;;;;9.30;5.20;;;;;;;42.36;12.57;101370.56;5073872;28;20056;-57
2022/04/19 12:05:25;;;;;;;8.35;4.80;;;;;;;42.47;12.49;101357.31;5075371;28;20115;-56
2022/04/19 12:07:52;;;;;;;11.73;5.68;;;;;;;42.53;12.28;101352.09;5070810;28;20150;-59
2022/04/19 12:10:19;;;;;;;13.23;5.38;;;;;;;42.81;12.26;101354.00;5066804;28;20033;-58
2022/04/19 12:12:46;;;;;;;10.77;6.38;;;;;;;42.82;11.97;101349.16;5069782;28;20056;-59
2022/04/19 12:15:11;;;;;;;12.80;7.00;;;;;;;42.88;11.93;101347.56;5066728;28;20036;-59